createdAt,value
2023-04-09T00:00:08.080Z,18.90
2023-04-09T00:01:08.063Z,19.60
2023-04-09T00:02:08.077Z,19.10
2023-04-09T00:03:08.278Z,19.60
2023-04-09T00:04:08.159Z,19.10
2023-04-09T00:05:08.023Z,19.70
2023-04-09T00:06:08.016Z,19.10
2023-04-09T00:07:08.028Z,20.20
2023-04-09T00:08:08.028Z,19.00
2023-04-09T00:09:08.013Z,19.50
2023-04-09T00:10:08.005Z,19.50
2023-04-09T00:11:07.993Z,19.20
2023-04-09T00:12:07.980Z,18.90
2023-04-09T00:13:07.992Z,19.20
2023-04-09T00:14:08.501Z,19.30
2023-04-09T00:15:11.002Z,19.50
2023-04-09T00:16:09.225Z,19.70
2023-04-09T00:17:07.941Z,18.60
2023-04-09T00:18:07.985Z,19.00
2023-04-09T00:19:07.947Z,19.10
2023-04-09T00:20:07.984Z,19.20
2023-04-09T00:21:07.927Z,19.80
2023-04-09T00:22:07.948Z,17.90
2023-04-09T00:23:07.899Z,19.30
2023-04-09T00:24:07.926Z,19.90
2023-04-09T00:25:07.931Z,19.20
2023-04-09T00:26:07.939Z,19.70
2023-04-09T00:27:07.885Z,19.40
2023-04-09T00:28:07.900Z,20.30
2023-04-09T00:29:07.890Z,19.20
2023-04-09T00:30:07.912Z,19.70
2023-04-09T00:31:07.898Z,19.70
2023-04-09T00:32:07.948Z,19.40
2023-04-09T00:33:07.870Z,20.20
2023-04-09T00:34:07.864Z,19.90
2023-04-09T00:35:07.904Z,19.60
2023-04-09T00:36:07.940Z,19.50
2023-04-09T00:37:07.833Z,19.90
2023-04-09T00:38:07.842Z,18.90
2023-04-09T00:39:07.823Z,19.20
2023-04-09T00:40:07.822Z,19.30
2023-04-09T00:41:07.834Z,19.30
2023-04-09T00:42:07.850Z,19.50
2023-04-09T00:43:07.804Z,19.90
2023-04-09T00:44:07.815Z,19.00
2023-04-09T00:45:07.814Z,19.60
2023-04-09T00:46:07.852Z,18.10
2023-04-09T00:47:07.842Z,19.50
2023-04-09T00:48:07.850Z,19.90
2023-04-09T00:49:07.810Z,20.00
2023-04-09T00:50:07.809Z,20.10
2023-04-09T00:51:07.777Z,19.80
2023-04-09T00:52:07.770Z,19.50
2023-04-09T00:53:07.784Z,18.90
2023-04-09T00:54:07.790Z,19.20
2023-04-09T00:55:07.763Z,20.20
2023-04-09T00:56:07.775Z,20.00
2023-04-09T00:57:07.762Z,19.80
2023-04-09T00:58:07.754Z,19.60
2023-04-09T00:59:07.718Z,19.10
2023-04-09T01:00:07.774Z,19.10
2023-04-09T01:01:07.791Z,19.80
2023-04-09T01:02:07.816Z,20.10
2023-04-09T01:03:07.786Z,19.10
2023-04-09T01:04:07.704Z,19.60
2023-04-09T01:05:07.679Z,19.60
2023-04-09T01:06:07.702Z,19.70
2023-04-09T01:07:07.712Z,19.50
2023-04-09T01:08:07.684Z,19.10
2023-04-09T01:09:07.660Z,19.30
2023-04-09T01:10:07.753Z,18.80
2023-04-09T01:11:07.644Z,18.20
2023-04-09T01:12:07.648Z,19.80
2023-04-09T01:13:07.629Z,19.60
2023-04-09T01:14:07.642Z,20.10
2023-04-09T01:15:07.668Z,19.40
2023-04-09T01:16:07.719Z,19.40
2023-04-09T01:17:07.605Z,20.10
2023-04-09T01:18:07.713Z,19.90
2023-04-09T01:19:07.600Z,19.20
2023-04-09T01:20:07.631Z,19.90
2023-04-09T01:21:07.597Z,20.10
2023-04-09T01:22:07.666Z,20.30
2023-04-09T01:23:07.581Z,20.50
2023-04-09T01:24:07.611Z,20.40
2023-04-09T01:25:07.579Z,19.70
2023-04-09T01:26:07.588Z,19.40
2023-04-09T01:27:07.599Z,20.70
2023-04-09T01:28:07.562Z,20.60
2023-04-09T01:29:07.563Z,20.70
2023-04-09T01:30:07.553Z,20.00
2023-04-09T01:31:07.717Z,21.40
2023-04-09T01:32:07.627Z,20.10
2023-04-09T01:33:07.531Z,19.20
2023-04-09T01:34:07.542Z,20.30
2023-04-09T01:35:07.506Z,19.90
2023-04-09T01:36:07.575Z,19.70
2023-04-09T01:37:07.511Z,20.10
2023-04-09T01:38:07.521Z,20.70
2023-04-09T01:39:07.502Z,20.10
2023-04-09T01:40:07.523Z,20.10
2023-04-09T01:41:07.492Z,19.90
2023-04-09T01:42:07.488Z,20.30
2023-04-09T01:43:07.499Z,20.50
2023-04-09T01:44:07.487Z,20.80
2023-04-09T01:45:07.453Z,21.50
2023-04-09T01:46:07.537Z,21.00
2023-04-09T01:47:07.456Z,20.90
2023-04-09T01:48:07.453Z,21.30
2023-04-09T01:49:07.441Z,21.20
2023-04-09T01:50:07.474Z,20.80
2023-04-09T01:51:07.435Z,21.80
2023-04-09T01:52:07.483Z,22.00
2023-04-09T01:53:07.440Z,20.90
2023-04-09T01:54:07.438Z,22.20
2023-04-09T01:55:07.398Z,20.90
2023-04-09T01:56:07.420Z,22.00
2023-04-09T01:57:07.406Z,22.20
2023-04-09T01:58:07.429Z,22.30
2023-04-09T01:59:07.422Z,21.30
2023-04-09T02:00:07.410Z,21.80
2023-04-09T02:01:07.443Z,22.50
2023-04-09T02:02:07.418Z,21.90
2023-04-09T02:03:07.415Z,22.40
2023-04-09T02:04:07.498Z,22.70
2023-04-09T02:05:07.395Z,23.20
2023-04-09T02:06:07.397Z,22.40
2023-04-09T02:07:07.329Z,22.50
2023-04-09T02:08:07.354Z,22.80
2023-04-09T02:09:07.330Z,22.10
2023-04-09T02:10:07.342Z,22.90
2023-04-09T02:11:07.379Z,22.90
2023-04-09T02:12:07.362Z,23.60
2023-04-09T02:13:07.313Z,24.20
2023-04-09T02:14:07.317Z,23.60
2023-04-09T02:15:07.324Z,23.20
2023-04-09T02:16:07.390Z,23.30
2023-04-09T02:17:07.305Z,23.10
2023-04-09T02:18:07.289Z,24.80
2023-04-09T02:19:07.266Z,25.40
2023-04-09T02:20:07.323Z,23.70
2023-04-09T02:21:07.267Z,25.00
2023-04-09T02:22:07.284Z,24.50
2023-04-09T02:23:07.271Z,24.90
2023-04-09T02:24:07.262Z,24.90
2023-04-09T02:25:07.245Z,24.30
2023-04-09T02:26:07.296Z,24.30
2023-04-09T02:27:07.236Z,23.70
2023-04-09T02:28:07.254Z,25.40
2023-04-09T02:29:07.233Z,24.40
2023-04-09T02:30:07.229Z,24.70
2023-04-09T02:31:07.234Z,25.20
2023-04-09T02:32:07.251Z,24.70
2023-04-09T02:33:07.220Z,25.40
2023-04-09T02:34:07.213Z,24.40
2023-04-09T02:35:07.192Z,24.20
2023-04-09T02:36:07.229Z,24.80
2023-04-09T02:37:07.178Z,25.30
2023-04-09T02:38:07.204Z,24.80
2023-04-09T02:39:07.169Z,24.70
2023-04-09T02:40:07.178Z,25.60
2023-04-09T02:41:07.185Z,25.50
2023-04-09T02:42:07.213Z,25.70
2023-04-09T02:43:07.153Z,25.70
2023-04-09T02:44:07.165Z,26.10
2023-04-09T02:45:07.182Z,25.20
2023-04-09T02:46:07.156Z,26.80
2023-04-09T02:47:07.174Z,26.00
2023-04-09T02:48:07.142Z,26.20
2023-04-09T02:49:07.125Z,26.40
2023-04-09T02:50:07.126Z,27.30
2023-04-09T02:51:07.136Z,25.10
2023-04-09T02:52:07.148Z,27.30
2023-04-09T02:53:07.126Z,26.70
2023-04-09T02:54:07.104Z,26.40
2023-04-09T02:55:07.095Z,27.20
2023-04-09T02:56:07.089Z,27.90
2023-04-09T02:57:07.079Z,27.00
2023-04-09T02:58:07.074Z,26.90
2023-04-09T02:59:07.094Z,27.40
2023-04-09T03:00:07.070Z,27.40
2023-04-09T03:01:07.047Z,27.30
2023-04-09T03:02:07.197Z,26.80
2023-04-09T03:03:07.157Z,26.50
2023-04-09T03:04:07.153Z,26.40
2023-04-09T03:05:07.042Z,28.40
2023-04-09T03:06:07.031Z,27.30
2023-04-09T03:07:07.029Z,27.00
2023-04-09T03:08:07.042Z,27.20
2023-04-09T03:09:06.997Z,27.60
2023-04-09T03:10:07.015Z,28.30
2023-04-09T03:11:06.992Z,26.20
2023-04-09T03:12:07.013Z,26.80
2023-04-09T03:13:07.007Z,26.70
2023-04-09T03:14:06.980Z,27.50
2023-04-09T03:15:06.976Z,26.90
2023-04-09T03:16:07.236Z,27.00
2023-04-09T03:17:06.961Z,26.80
2023-04-09T03:18:06.994Z,27.30
2023-04-09T03:19:06.962Z,27.10
2023-04-09T03:20:06.969Z,26.40
2023-04-09T03:21:06.934Z,27.70
2023-04-09T03:22:06.945Z,27.40
2023-04-09T03:23:06.944Z,27.60
2023-04-09T03:24:06.934Z,27.60
2023-04-09T03:25:06.914Z,26.60
2023-04-09T03:26:06.929Z,26.60
2023-04-09T03:27:06.942Z,26.90
2023-04-09T03:28:06.909Z,26.80
2023-04-09T03:29:06.911Z,26.60
2023-04-09T03:30:06.927Z,26.40
2023-04-09T03:31:06.909Z,27.10
2023-04-09T03:32:06.887Z,26.90
2023-04-09T03:33:06.864Z,28.30
2023-04-09T03:34:06.889Z,27.20
2023-04-09T03:35:06.865Z,26.60
2023-04-09T03:36:06.945Z,27.60
2023-04-09T03:37:06.852Z,27.30
2023-04-09T03:38:06.858Z,27.00
2023-04-09T03:39:06.849Z,28.30
2023-04-09T03:40:06.853Z,27.60
2023-04-09T03:41:06.822Z,27.00
2023-04-09T03:42:06.855Z,27.10
2023-04-09T03:43:06.822Z,27.60
2023-04-09T03:44:06.827Z,27.90
2023-04-09T03:45:06.845Z,27.50
2023-04-09T03:46:06.833Z,26.80
2023-04-09T03:47:06.783Z,28.30
2023-04-09T03:48:06.833Z,28.10
2023-04-09T03:49:06.786Z,26.50
2023-04-09T03:50:06.789Z,27.40
2023-04-09T03:51:06.786Z,27.60
2023-04-09T03:52:06.786Z,26.90
2023-04-09T03:53:06.768Z,26.70
2023-04-09T03:54:06.799Z,26.70
2023-04-09T03:55:06.744Z,27.10
2023-04-09T03:56:06.809Z,27.80
2023-04-09T03:57:06.790Z,27.80
2023-04-09T03:58:06.769Z,27.20
2023-04-09T03:59:06.740Z,27.60
2023-04-09T04:00:06.763Z,27.00
2023-04-09T04:01:06.714Z,27.20
2023-04-09T04:02:06.794Z,26.60
2023-04-09T04:03:06.857Z,27.20
2023-04-09T04:04:06.790Z,26.90
2023-04-09T04:05:06.713Z,27.00
2023-04-09T04:06:06.723Z,27.30
2023-04-09T04:07:06.684Z,26.80
2023-04-09T04:08:06.682Z,27.00
2023-04-09T04:09:06.677Z,27.00
2023-04-09T04:10:06.721Z,26.80
2023-04-09T04:11:06.664Z,26.80
2023-04-09T04:12:06.660Z,26.70
2023-04-09T04:13:06.668Z,27.30
2023-04-09T04:14:06.670Z,26.50
2023-04-09T04:15:06.640Z,26.90
2023-04-09T04:16:06.678Z,26.30
2023-04-09T04:17:06.646Z,26.90
2023-04-09T04:18:06.642Z,26.80
2023-04-09T04:19:06.638Z,28.10
2023-04-09T04:20:06.629Z,27.30
2023-04-09T04:21:06.637Z,26.90
2023-04-09T04:22:06.604Z,26.70
2023-04-09T04:23:06.599Z,27.20
2023-04-09T04:24:06.585Z,27.00
2023-04-09T04:25:06.598Z,26.90
2023-04-09T04:26:06.601Z,27.20
2023-04-09T04:27:06.594Z,27.10
2023-04-09T04:28:06.571Z,26.60
2023-04-09T04:29:06.577Z,27.80
2023-04-09T04:30:06.603Z,27.50
2023-04-09T04:31:06.538Z,27.20
2023-04-09T04:32:06.669Z,27.70
2023-04-09T04:33:06.538Z,27.60
2023-04-09T04:34:06.546Z,27.40
2023-04-09T04:35:06.525Z,28.30
2023-04-09T04:36:06.541Z,27.60
2023-04-09T04:37:06.537Z,27.60
2023-04-09T04:38:06.540Z,28.00
2023-04-09T04:39:06.512Z,27.90
2023-04-09T04:40:06.514Z,27.00
2023-04-09T04:41:06.484Z,27.90
2023-04-09T04:42:06.513Z,28.40
2023-04-09T04:43:06.475Z,29.00
2023-04-09T04:44:06.502Z,28.60
2023-04-09T04:45:06.474Z,28.70
2023-04-09T04:46:06.528Z,28.70
2023-04-09T04:47:06.462Z,28.10
2023-04-09T04:48:06.463Z,29.70
2023-04-09T04:49:06.468Z,30.00
2023-04-09T04:50:06.460Z,29.50
2023-04-09T04:51:06.477Z,29.50
2023-04-09T04:52:06.442Z,30.30
2023-04-09T04:53:06.439Z,30.20
2023-04-09T04:54:06.443Z,29.00
2023-04-09T04:55:06.435Z,29.80
2023-04-09T04:56:06.438Z,30.30
2023-04-09T04:57:06.456Z,29.40
2023-04-09T04:58:06.416Z,30.40
2023-04-09T04:59:06.394Z,29.50
2023-04-09T05:00:06.432Z,30.00
2023-04-09T05:01:06.433Z,30.60
2023-04-09T05:02:06.440Z,30.30
2023-04-09T05:03:06.586Z,29.60
2023-04-09T05:04:06.395Z,30.70
2023-04-09T05:05:06.368Z,29.80
2023-04-09T05:06:06.378Z,30.80
2023-04-09T05:07:06.368Z,31.10
2023-04-09T05:08:06.413Z,29.70
2023-04-09T05:09:06.377Z,31.00
2023-04-09T05:10:06.361Z,29.50
2023-04-09T05:11:06.334Z,30.20
2023-04-09T05:12:06.329Z,30.20
2023-04-09T05:13:06.327Z,30.20
2023-04-09T05:14:06.340Z,30.40
2023-04-09T05:15:06.331Z,29.50
2023-04-09T05:16:06.313Z,31.30
2023-04-09T05:17:06.330Z,30.70
2023-04-09T05:18:06.301Z,30.50
2023-04-09T05:19:06.286Z,31.10
2023-04-09T05:20:06.324Z,30.10
2023-04-09T05:21:06.349Z,30.60
2023-04-09T05:22:06.283Z,30.30
2023-04-09T05:23:06.273Z,30.40
2023-04-09T05:24:06.510Z,30.60
2023-04-09T05:25:06.246Z,30.40
2023-04-09T05:26:06.255Z,30.50
2023-04-09T05:27:06.264Z,29.70
2023-04-09T05:28:06.240Z,30.20
2023-04-09T05:29:06.218Z,30.70
2023-04-09T05:30:06.259Z,30.20
2023-04-09T05:31:06.241Z,29.90
2023-04-09T05:32:06.215Z,30.30
2023-04-09T05:33:06.238Z,30.70
2023-04-09T05:34:06.250Z,30.30
2023-04-09T05:35:06.190Z,30.00
2023-04-09T05:36:06.263Z,31.20
2023-04-09T05:37:06.210Z,30.80
2023-04-09T05:38:06.191Z,30.00
2023-04-09T05:39:06.204Z,30.60
2023-04-09T05:40:06.219Z,31.10
2023-04-09T05:41:06.146Z,30.00
2023-04-09T05:42:06.172Z,30.50
2023-04-09T05:43:06.186Z,30.20
2023-04-09T05:44:06.172Z,30.40
2023-04-09T05:45:06.151Z,30.70
2023-04-09T05:46:06.218Z,30.30
2023-04-09T05:47:06.144Z,31.30
2023-04-09T05:48:06.128Z,30.90
2023-04-09T05:49:06.147Z,30.50
2023-04-09T05:50:06.183Z,29.60
2023-04-09T05:51:06.111Z,30.60
2023-04-09T05:52:06.114Z,30.10
2023-04-09T05:53:06.090Z,30.20
2023-04-09T05:54:06.103Z,29.80
2023-04-09T05:55:06.097Z,30.90
2023-04-09T05:56:06.107Z,30.80
2023-04-09T05:57:06.078Z,29.90
2023-04-09T05:58:06.109Z,31.20
2023-04-09T05:59:06.058Z,31.50
2023-04-09T06:00:06.068Z,30.80
2023-04-09T06:01:06.060Z,30.30
2023-04-09T06:02:06.138Z,31.00
2023-04-09T06:03:06.127Z,30.70
2023-04-09T06:04:06.264Z,30.70
2023-04-09T06:05:06.028Z,31.10
2023-04-09T06:06:06.053Z,31.20
2023-04-09T06:07:06.029Z,30.50
2023-04-09T06:08:06.053Z,31.00
2023-04-09T06:09:06.009Z,32.80
2023-04-09T06:10:06.063Z,30.30
2023-04-09T06:11:05.995Z,30.20
2023-04-09T06:12:05.999Z,30.60
2023-04-09T06:13:05.985Z,31.40
2023-04-09T06:14:05.979Z,31.00
2023-04-09T06:15:06.014Z,30.20
2023-04-09T06:16:06.030Z,31.10
2023-04-09T06:17:05.991Z,30.60
2023-04-09T06:18:06.161Z,30.40
2023-04-09T06:19:05.973Z,31.00
2023-04-09T06:20:05.964Z,30.20
2023-04-09T06:21:05.960Z,31.50
2023-04-09T06:22:05.956Z,31.40
2023-04-09T06:23:05.947Z,31.00
2023-04-09T06:24:05.932Z,30.50
2023-04-09T06:25:05.957Z,31.70
2023-04-09T06:26:05.923Z,30.80
2023-04-09T06:27:05.930Z,30.10
2023-04-09T06:28:06.158Z,29.50
2023-04-09T06:29:05.934Z,30.80
2023-04-09T06:30:05.923Z,30.70
2023-04-09T06:31:05.892Z,30.80
2023-04-09T06:32:05.917Z,30.60
2023-04-09T06:33:05.936Z,31.40
2023-04-09T06:34:05.902Z,30.30
2023-04-09T06:35:05.867Z,30.20
2023-04-09T06:36:05.979Z,30.00
2023-04-09T06:37:05.875Z,30.90
2023-04-09T06:38:06.573Z,29.40
2023-04-09T06:39:05.866Z,30.50
2023-04-09T06:40:05.892Z,29.80
2023-04-09T06:41:05.842Z,29.70
2023-04-09T06:42:05.839Z,30.90
2023-04-09T06:43:05.841Z,30.20
2023-04-09T06:44:05.845Z,30.10
2023-04-09T06:45:05.854Z,30.70
2023-04-09T06:46:05.859Z,30.60
2023-04-09T06:47:05.810Z,31.10
2023-04-09T06:48:05.941Z,31.00
2023-04-09T06:49:05.784Z,30.10
2023-04-09T06:50:05.802Z,30.00
2023-04-09T06:51:05.805Z,30.10
2023-04-09T06:52:05.805Z,30.50
2023-04-09T06:53:05.773Z,29.80
2023-04-09T06:54:05.789Z,29.70
2023-04-09T06:55:05.763Z,30.00
2023-04-09T06:56:05.820Z,29.70
2023-04-09T06:57:05.753Z,28.40
2023-04-09T06:58:05.791Z,30.20
2023-04-09T06:59:05.738Z,28.80
2023-04-09T07:00:05.734Z,29.10
2023-04-09T07:01:05.727Z,28.80
2023-04-09T07:02:05.766Z,28.00
2023-04-09T07:03:05.888Z,28.40
2023-04-09T07:04:05.870Z,29.70
2023-04-09T07:05:05.689Z,29.10
2023-04-09T07:06:05.702Z,28.10
2023-04-09T07:07:05.679Z,28.10
2023-04-09T07:08:05.749Z,28.60
2023-04-09T07:09:05.687Z,28.80
2023-04-09T07:10:05.669Z,30.60
2023-04-09T07:11:05.660Z,28.90
2023-04-09T07:12:05.665Z,29.00
2023-04-09T07:13:05.649Z,28.50
2023-04-09T07:14:05.664Z,27.20
2023-04-09T07:15:05.667Z,28.60
2023-04-09T07:16:05.690Z,27.90
2023-04-09T07:17:05.639Z,29.00
2023-04-09T07:18:05.653Z,26.80
2023-04-09T07:19:05.607Z,29.10
2023-04-09T07:20:05.646Z,27.80
2023-04-09T07:21:05.612Z,27.70
2023-04-09T07:22:05.610Z,27.60
2023-04-09T07:23:05.580Z,28.60
2023-04-09T07:24:05.623Z,27.30
2023-04-09T07:25:05.576Z,26.60
2023-04-09T07:26:05.608Z,28.00
2023-04-09T07:27:05.683Z,27.90
2023-04-09T07:28:05.603Z,28.00
2023-04-09T07:29:05.544Z,27.70
2023-04-09T07:30:05.580Z,26.80
2023-04-09T07:31:05.601Z,28.20
2023-04-09T07:32:05.554Z,26.60
2023-04-09T07:33:05.567Z,28.10
2023-04-09T07:34:05.547Z,28.80
2023-04-09T07:35:05.507Z,26.50
2023-04-09T07:36:05.576Z,27.30
2023-04-09T07:37:05.534Z,27.90
2023-04-09T07:38:05.522Z,27.10
2023-04-09T07:39:05.485Z,27.20
2023-04-09T07:40:05.507Z,26.30
2023-04-09T07:41:05.774Z,26.80
2023-04-09T07:42:05.477Z,26.80
2023-04-09T07:43:05.458Z,27.30
2023-04-09T07:44:05.470Z,27.10
2023-04-09T07:45:05.465Z,27.40
2023-04-09T07:46:05.463Z,26.80
2023-04-09T07:47:05.541Z,26.70
2023-04-09T07:48:05.474Z,26.70
2023-04-09T07:49:05.446Z,27.00
2023-04-09T07:50:05.454Z,26.90
2023-04-09T07:51:05.407Z,27.10
2023-04-09T07:52:05.445Z,26.80
2023-04-09T07:53:05.409Z,25.80
2023-04-09T07:54:05.428Z,26.10
2023-04-09T07:55:05.410Z,25.80
2023-04-09T07:56:05.412Z,26.00
2023-04-09T07:57:05.396Z,26.10
2023-04-09T07:58:05.434Z,26.60
2023-04-09T07:59:05.382Z,26.40
2023-04-09T08:00:05.406Z,25.30
2023-04-09T08:01:05.366Z,26.10
2023-04-09T08:02:05.431Z,26.10
2023-04-09T08:03:05.656Z,26.90
2023-04-09T08:04:05.561Z,26.30
2023-04-09T08:05:05.406Z,26.00
2023-04-09T08:06:05.372Z,27.10
2023-04-09T08:07:05.385Z,25.80
2023-04-09T08:08:05.325Z,26.50
2023-04-09T08:09:05.315Z,27.00
2023-04-09T08:10:05.310Z,26.10
2023-04-09T08:11:05.326Z,27.70
2023-04-09T08:12:05.324Z,27.00
2023-04-09T08:13:05.308Z,27.30
2023-04-09T08:14:05.322Z,26.50
2023-04-09T08:15:05.290Z,27.10
2023-04-09T08:16:05.332Z,26.90
2023-04-09T08:17:05.286Z,27.50
2023-04-09T08:18:05.309Z,27.70
2023-04-09T08:19:05.268Z,27.00
2023-04-09T08:20:05.276Z,26.10
2023-04-09T08:21:05.253Z,26.90
2023-04-09T08:22:05.246Z,27.10
2023-04-09T08:23:05.276Z,26.00
2023-04-09T08:24:05.240Z,27.30
2023-04-09T08:25:05.217Z,27.40
2023-04-09T08:26:05.233Z,27.20
2023-04-09T08:27:05.228Z,27.20
2023-04-09T08:28:05.199Z,27.50
2023-04-09T08:29:05.202Z,27.80
2023-04-09T08:30:05.195Z,27.70
2023-04-09T08:31:05.154Z,27.10
2023-04-09T08:32:05.203Z,27.00
2023-04-09T08:33:05.199Z,27.60
2023-04-09T08:34:05.158Z,28.40
2023-04-09T08:35:05.132Z,28.00
2023-04-09T08:36:05.181Z,29.00
2023-04-09T08:37:05.114Z,28.60
2023-04-09T08:38:05.120Z,27.80
2023-04-09T08:39:05.111Z,27.90
2023-04-09T08:40:05.117Z,27.90
2023-04-09T08:41:05.080Z,28.80
2023-04-09T08:42:05.119Z,29.80
2023-04-09T08:43:05.091Z,28.60
2023-04-09T08:44:05.082Z,28.00
2023-04-09T08:45:05.056Z,28.80
2023-04-09T08:46:05.110Z,27.70
2023-04-09T08:47:05.060Z,29.90
2023-04-09T08:48:05.161Z,29.50
2023-04-09T08:49:05.046Z,29.60
2023-04-09T08:50:05.048Z,29.20
2023-04-09T08:51:05.016Z,29.10
2023-04-09T08:52:05.699Z,30.80
2023-04-09T08:53:05.016Z,29.70
2023-04-09T08:54:05.406Z,29.50
2023-04-09T08:55:05.030Z,29.10
2023-04-09T08:56:05.037Z,29.50
2023-04-09T08:57:05.273Z,29.60
2023-04-09T08:58:05.022Z,29.70
2023-04-09T08:59:04.965Z,30.00
2023-04-09T09:00:04.961Z,29.60
2023-04-09T09:01:04.983Z,29.10
2023-04-09T09:02:05.036Z,28.40
2023-04-09T09:03:05.651Z,27.30
2023-04-09T09:04:05.032Z,27.30
2023-04-09T09:05:04.923Z,27.20
2023-04-09T09:06:04.919Z,26.80
2023-04-09T09:07:04.916Z,27.40
2023-04-09T09:08:04.909Z,27.70
2023-04-09T09:09:04.949Z,27.00
2023-04-09T09:10:04.886Z,27.30
2023-04-09T09:11:04.894Z,28.80
2023-04-09T09:12:04.859Z,25.80
2023-04-09T09:13:04.869Z,26.70
2023-04-09T09:14:04.852Z,27.70
2023-04-09T09:15:04.895Z,27.20
2023-04-09T09:16:04.836Z,26.50
2023-04-09T09:17:04.923Z,26.70
2023-04-09T09:18:04.874Z,26.30
2023-04-09T09:19:04.818Z,26.20
2023-04-09T09:20:04.801Z,26.60
2023-04-09T09:21:04.766Z,28.30
2023-04-09T09:22:04.789Z,27.30
2023-04-09T09:23:04.793Z,26.60
2023-04-09T09:24:04.807Z,25.70
2023-04-09T09:25:04.766Z,26.90
2023-04-09T09:26:04.751Z,27.90
2023-04-09T09:27:04.718Z,27.80
2023-04-09T09:28:04.736Z,26.70
2023-04-09T09:29:04.737Z,26.50
2023-04-09T09:30:04.725Z,25.60
2023-04-09T09:31:04.751Z,25.90
2023-04-09T09:32:04.696Z,25.80
2023-04-09T09:33:04.692Z,25.40
2023-04-09T09:34:04.726Z,24.90
2023-04-09T09:35:04.666Z,24.20
2023-04-09T09:36:04.723Z,25.50
2023-04-09T09:37:04.652Z,25.70
2023-04-09T09:38:04.680Z,26.20
2023-04-09T09:39:04.640Z,26.60
2023-04-09T09:40:04.648Z,25.10
2023-04-09T09:41:04.602Z,25.40
2023-04-09T09:42:04.616Z,23.10
2023-04-09T09:43:04.591Z,24.70
2023-04-09T09:44:04.591Z,24.90
2023-04-09T09:45:04.609Z,24.60
2023-04-09T09:46:04.605Z,25.90
2023-04-09T09:47:04.598Z,25.50
2023-04-09T09:48:04.638Z,24.40
2023-04-09T09:49:04.544Z,24.00
2023-04-09T09:50:04.555Z,23.70
2023-04-09T09:51:04.546Z,23.60
2023-04-09T09:52:04.534Z,24.00
2023-04-09T09:53:04.524Z,24.50
2023-04-09T09:54:04.521Z,23.20
2023-04-09T09:55:04.492Z,25.00
2023-04-09T09:56:04.526Z,24.00
2023-04-09T09:57:04.485Z,25.40
2023-04-09T09:58:04.495Z,23.20
2023-04-09T09:59:04.451Z,23.50
2023-04-09T10:00:04.506Z,24.30
2023-04-09T10:01:04.537Z,23.90
2023-04-09T10:02:04.556Z,21.90
2023-04-09T10:03:04.496Z,20.70
2023-04-09T10:04:04.451Z,21.00
2023-04-09T10:05:04.443Z,18.70
2023-04-09T10:06:04.431Z,19.70
2023-04-09T10:07:04.412Z,19.40
2023-04-09T10:08:04.442Z,21.30
2023-04-09T10:09:04.390Z,20.70
2023-04-09T10:10:04.397Z,21.10
2023-04-09T10:11:04.351Z,20.10
2023-04-09T10:12:04.454Z,21.20
2023-04-09T10:13:04.348Z,21.50
2023-04-09T10:14:04.351Z,22.50
2023-04-09T10:15:04.331Z,22.00
2023-04-09T10:16:04.393Z,21.80
2023-04-09T10:17:04.381Z,21.30
2023-04-09T10:18:04.346Z,21.90
2023-04-09T10:19:04.379Z,22.00
2023-04-09T10:20:04.293Z,20.10
2023-04-09T10:21:04.453Z,19.60
2023-04-09T10:22:04.286Z,20.10
2023-04-09T10:23:04.271Z,20.70
2023-04-09T10:24:04.261Z,20.10
2023-04-09T10:25:04.269Z,19.10
2023-04-09T10:26:04.257Z,20.50
2023-04-09T10:27:04.223Z,20.10
2023-04-09T10:28:04.232Z,19.90
2023-04-09T10:29:04.240Z,20.90
2023-04-09T10:30:04.212Z,20.20
2023-04-09T10:31:04.229Z,21.10
2023-04-09T10:32:04.213Z,20.70
2023-04-09T10:33:04.243Z,19.00
2023-04-09T10:34:04.192Z,19.50
2023-04-09T10:35:04.277Z,19.80
2023-04-09T10:36:04.179Z,20.10
2023-04-09T10:37:04.172Z,20.50
2023-04-09T10:38:04.140Z,20.50
2023-04-09T10:39:04.136Z,20.40
2023-04-09T10:40:04.164Z,20.20
2023-04-09T10:41:04.132Z,19.60
2023-04-09T10:42:04.130Z,19.00
2023-04-09T10:43:04.181Z,18.50
2023-04-09T10:44:04.104Z,18.00
2023-04-09T10:45:04.071Z,18.50
2023-04-09T10:46:04.166Z,19.80
2023-04-09T10:47:04.055Z,19.70
2023-04-09T10:48:04.076Z,18.70
2023-04-09T10:49:04.061Z,18.20
2023-04-09T10:50:04.041Z,18.20
2023-04-09T10:51:04.047Z,17.30
2023-04-09T10:52:04.029Z,17.80
2023-04-09T10:53:04.088Z,17.50
2023-04-09T10:54:04.023Z,17.20
2023-04-09T10:55:03.981Z,17.00
2023-04-09T10:56:04.007Z,16.80
2023-04-09T10:57:03.989Z,16.30
2023-04-09T10:58:03.975Z,17.00
2023-04-09T10:59:03.989Z,17.70
2023-04-09T11:00:03.996Z,16.10
2023-04-09T11:01:03.929Z,16.80
2023-04-09T11:02:03.973Z,16.20
2023-04-09T11:03:04.168Z,16.80
2023-04-09T11:04:03.946Z,16.20
2023-04-09T11:05:03.921Z,16.60
2023-04-09T11:06:03.904Z,16.50
2023-04-09T11:07:03.874Z,17.00
2023-04-09T11:08:03.888Z,19.00
2023-04-09T11:09:03.889Z,18.00
2023-04-09T11:10:03.893Z,18.20
2023-04-09T11:11:03.883Z,18.70
2023-04-09T11:12:03.860Z,16.90
2023-04-09T11:13:03.870Z,16.50
2023-04-09T11:14:03.842Z,16.70
2023-04-09T11:15:03.817Z,16.10
2023-04-09T11:16:03.909Z,17.30
2023-04-09T11:17:03.793Z,16.10
2023-04-09T11:18:03.860Z,16.90
2023-04-09T11:19:03.862Z,16.80
2023-04-09T11:20:03.821Z,16.60
2023-04-09T11:21:03.795Z,17.20
2023-04-09T11:22:03.760Z,16.90
2023-04-09T11:23:03.762Z,17.60
2023-04-09T11:24:03.744Z,17.70
2023-04-09T11:25:03.711Z,17.20
2023-04-09T11:26:03.739Z,17.20
2023-04-09T11:27:03.744Z,16.80
2023-04-09T11:28:03.744Z,15.80
2023-04-09T11:29:03.734Z,14.30
2023-04-09T11:30:03.706Z,14.20
2023-04-09T11:31:03.736Z,13.60
2023-04-09T11:32:03.678Z,15.00
2023-04-09T11:33:03.734Z,14.00
2023-04-09T11:34:03.665Z,14.10
2023-04-09T11:35:03.627Z,13.70
2023-04-09T11:36:03.662Z,14.00
2023-04-09T11:37:03.655Z,13.90
2023-04-09T11:38:03.631Z,13.90
2023-04-09T11:39:03.605Z,13.80
2023-04-09T11:40:03.618Z,14.10
2023-04-09T11:41:03.591Z,13.90
2023-04-09T11:42:03.601Z,13.80
2023-04-09T11:43:03.652Z,14.10
2023-04-09T11:44:03.618Z,14.20
2023-04-09T11:45:03.556Z,14.40
2023-04-09T11:46:03.572Z,14.40
2023-04-09T11:47:03.632Z,14.60
2023-04-09T11:48:03.567Z,14.10
2023-04-09T11:49:03.568Z,14.00
2023-04-09T11:50:03.532Z,15.10
2023-04-09T11:51:03.520Z,14.50
2023-04-09T11:52:03.505Z,14.10
2023-04-09T11:53:03.549Z,14.20
2023-04-09T11:54:03.569Z,14.30
2023-04-09T11:55:03.471Z,13.20
2023-04-09T11:56:03.527Z,14.00
2023-04-09T11:57:03.520Z,14.40
2023-04-09T11:58:03.493Z,14.30
2023-04-09T11:59:03.425Z,14.10
2023-04-09T12:00:05.192Z,14.70
2023-04-09T12:01:03.431Z,13.60
2023-04-09T12:02:03.563Z,13.30
2023-04-09T12:03:03.798Z,14.00
2023-04-09T12:04:03.694Z,14.00
2023-04-09T12:05:03.438Z,13.90
2023-04-09T12:06:03.812Z,12.90
2023-04-09T12:07:03.400Z,12.80
2023-04-09T12:08:03.405Z,13.00
2023-04-09T12:09:03.377Z,13.00
2023-04-09T12:10:03.396Z,12.90
2023-04-09T12:11:03.378Z,12.90
2023-04-09T12:12:03.358Z,12.90
2023-04-09T12:13:03.361Z,12.60
2023-04-09T12:14:03.344Z,12.10
2023-04-09T12:15:03.301Z,11.60
2023-04-09T12:16:03.447Z,11.90
2023-04-09T12:17:03.463Z,11.90
2023-04-09T12:18:03.406Z,11.60
2023-04-09T12:19:03.289Z,12.50
2023-04-09T12:20:03.308Z,11.70
2023-04-09T12:21:03.274Z,12.00
2023-04-09T12:22:03.254Z,12.80
2023-04-09T12:23:03.248Z,12.30
2023-04-09T12:24:03.265Z,11.90
2023-04-09T12:25:03.237Z,11.80
2023-04-09T12:26:03.269Z,11.50
2023-04-09T12:27:03.252Z,11.80
2023-04-09T12:28:03.220Z,12.70
2023-04-09T12:29:03.202Z,12.90
2023-04-09T12:30:03.209Z,12.40
2023-04-09T12:31:03.204Z,12.20
2023-04-09T12:32:03.220Z,11.60
2023-04-09T12:33:03.275Z,11.90
2023-04-09T12:34:03.226Z,11.30
2023-04-09T12:35:03.183Z,11.40
2023-04-09T12:36:03.219Z,11.40
2023-04-09T12:37:03.150Z,11.40
2023-04-09T12:38:03.139Z,11.30
2023-04-09T12:39:03.148Z,10.30
2023-04-09T12:40:03.142Z,10.40
2023-04-09T12:41:03.142Z,10.60
2023-04-09T12:42:03.137Z,10.40
2023-04-09T12:43:03.085Z,10.70
2023-04-09T12:44:03.118Z,10.20
2023-04-09T12:45:03.109Z,10.50
2023-04-09T12:46:03.224Z,10.10
2023-04-09T12:47:03.112Z,9.80
2023-04-09T12:48:03.131Z,11.30
2023-04-09T12:49:03.049Z,11.50
2023-04-09T12:50:03.078Z,11.80
2023-04-09T12:51:03.048Z,11.00
2023-04-09T12:52:03.089Z,11.00